Latest Weather Observations for Archerfield

IDQ60901

Issued at 4:01 pm EST Friday 1 July 2016 (issued every 10 minutes, with the page automatically refreshed every 10 minutes)

About weather observations | Map of Brisbane area stations | Latest observations for Brisbane area | Other Formats
Station Details ID: 040211 Name: ARCHERFIELD AIRPORT Lat: -27.57 Lon: 153.01 Height: 12.5 m
Data from the previous 72 hours. | See also: Recent months at Archerfield
Date/Time
EST
Temp
°C
App
Temp
°C
Dew
Point
°C
Rel
Hum
%
Delta-T
°C
Wind Press
QNH
hPa
Press
MSL
hPa
Rain since
9am
mm
Dir  Spd
km/h
Gust
km/h
Spd
kts
Gust
kts
01/03:30pm 21.6 14.8 3.3 30 8.7 W 28 35 15 19 1017.4 1017.4 0.0
01/03:00pm 21.9 14.8 3.6 30 8.8 W 30 43 16 23 1017.2 1017.2 0.0
01/02:30pm 21.8 16.3 3.9 31 8.7 W 22 37 12 20 1017.3 1017.3 0.0
01/02:00pm 21.8 15.5 3.9 31 8.6 W 26 37 14 20 1017.4 1017.4 0.0
01/01:30pm 21.6 15.3 3.8 31 8.6 W 26 39 14 21 1017.3 1017.3 0.0
01/01:00pm 21.4 16.3 4.0 32 8.4 W 20 28 11 15 1017.5 1017.5 0.0
01/12:30pm 21.1 13.5 2.9 30 8.6 W 32 44 17 24 1018.1 1018.1 0.0
01/12:00pm 20.3 15.5 5.5 38 7.3 W 20 28 11 15 1018.7 1018.7 0.0
01/11:30am 20.1 15.4 5.0 37 7.4 WSW 19 35 10 19 1019.2 1019.2 0.0
01/11:00am 19.9 15.5 7.3 44 6.4 W 20 28 11 15 1019.9 1019.9 0.0
01/10:30am 18.8 13.5 6.9 46 6.0 WSW 24 32 13 17 1020.0 1020.0 0.0
01/10:00am 18.0 15.2 8.6 54 4.8 WSW 13 19 7 10 1020.3 1020.3 0.0
01/09:30am 16.2 13.4 8.7 61 3.8 WSW 13 19 7 10 1020.5 1020.5 0.0
01/09:00am 15.5 13.0 9.6 68 3.0 WSW 13 17 7 9 1020.6 1020.6 0.0
01/08:30am 14.3 12.5 9.5 73 2.5 SSW 9 13 5 7 1020.8 1020.8 0.0
01/08:00am 13.9 12.8 10.7 81 1.7 WSW 7 11 4 6 1020.5 1020.5 0.0
01/07:30am 13.0 10.1 10.9 87 1.1 WSW 17 24 9 13 1020.2 1020.2 0.0
01/07:00am 11.6 8.6 10.5 93 0.6 SW 17 20 9 11 1019.8 1019.8 0.0
01/06:30am 10.4 8.2 9.5 94 0.5 SW 11 13 6 7 1019.5 1019.5 0.0
01/06:00am 9.7 8.1 8.6 93 0.5 SSW 7 11 4 6 1019.4 1019.4 0.0
01/05:30am 10.4 9.6 9.6 95 0.4 NNE 4 7 2 4 1019.1 1019.1 0.0
01/05:00am 9.6 7.6 8.8 95 0.4 NW 9 11 5 6 1019.0 1019.0 0.0
01/04:32am 9.2 8.8 8.3 94 0.4 CALM 0 6 0 3 1019.0 1019.0 0.0
01/04:30am 9.0 8.1 7.9 93 0.5 SW 2 7 1 4 1019.0 1019.0 0.0
01/04:00am 10.1 8.2 9.0 93 0.5 SSW 9 11 5 6 1018.9 1018.9 0.0
01/03:30am 10.4 9.1 9.2 92 0.6 SSW 6 11 3 6 1018.8 1018.8 0.0
01/03:00am 11.7 10.4 10.1 90 0.8 ESE 7 9 4 5 1018.8 1018.8 0.0
01/02:30am 11.8 10.8 10.4 91 0.7 SE 6 6 3 3 1019.0 1019.0 0.0
01/02:00am 12.5 12.9 11.1 91 0.7 CALM 0 0 0 0 1019.2 1019.2 0.0
01/01:30am 11.6 10.6 10.3 92 0.7 WSW 6 7 3 4 1019.4 1019.4 0.0
01/01:00am 11.7 10.3 10.8 94 0.5 SW 9 11 5 6 1019.5 1019.5 0.0
01/12:30am 11.3 10.1 9.7 90 0.8 SSW 6 9 3 5 1019.3 1019.3 0.0
01/12:00am 12.5 12.7 10.7 89 0.9 CALM 0 6 0 3 1019.4 1019.4 0.0
 
Date/Time
EST
Temp
°C
App
Temp
°C
Dew
Point
°C
Rel
Hum
%
Delta-T
°C
Wind Press
QNH
hPa
Press
MSL
hPa
Rain since
9am
mm
Dir  Spd
km/h
Gust
km/h
Spd
kts
Gust
kts
30/11:30pm 13.2 11.9 11.1 87 1.1 S 9 11 5 6 1019.5 1019.5 0.0
30/11:00pm 13.4 12.5 11.3 87 1.1 SSW 7 11 4 6 1019.5 1019.5 0.0
30/10:30pm 13.8 14.2 11.1 84 1.4 CALM 0 0 0 0 1019.7 1019.7 0.0
30/10:00pm 14.1 12.8 11.4 84 1.4 NNE 9 13 5 7 1020.0 1020.0 0.0
30/09:30pm 14.3 14.0 11.6 84 1.4 NNE 4 7 2 4 1020.4 1020.4 0.0
30/09:00pm 14.9 13.1 12.2 84 1.5 NNE 13 17 7 9 1020.4 1020.4 0.0
30/08:30pm 13.9 12.3 11.6 86 1.2 NNE 11 13 6 7 1020.8 1020.8 0.0
30/08:00pm 14.2 13.4 11.0 81 1.7 NNW 6 7 3 4 1021.1 1021.1 0.0
30/07:30pm 15.0 14.3 11.4 79 1.9 NE 6 7 3 4 1021.0 1021.0 0.0
30/07:00pm 15.2 15.3 11.6 79 1.9 NNE 2 6 1 3 1020.6 1020.6 0.0
30/06:30pm 14.9 13.4 10.5 75 2.3 NNE 9 11 5 6 1020.4 1020.4 0.0
30/06:00pm 15.1 13.7 9.7 70 2.8 NE 7 11 4 6 1020.1 1020.1 0.0
30/05:30pm 15.6 13.5 9.9 69 3.0 NE 11 15 6 8 1019.8 1019.8 0.0
30/05:00pm 17.3 14.9 10.0 62 3.8 NE 13 17 7 9 1019.8 1019.8 0.0
30/04:30pm 19.0 15.8 10.0 56 4.8 NE 17 20 9 11 1019.9 1019.9 0.0
30/04:00pm 20.2 17.0 10.0 52 5.5 NE 17 22 9 12 1020.0 1020.0 0.0
30/03:30pm 20.9 19.6 9.8 49 6.0 NNW 7 11 4 6 1020.0 1020.0 0.0
30/03:00pm 20.9 19.0 8.9 46 6.3 N 9 13 5 7 1020.1 1020.1 0.0
30/02:30pm 20.1 18.2 9.1 49 5.8 NNW 9 19 5 10 1020.3 1020.3 0.0
30/02:00pm 21.1 18.8 9.0 46 6.4 NE 11 17 6 9 1020.5 1020.5 0.0
30/01:30pm 20.9 19.0 9.2 47 6.2 NNW 9 13 5 7 1020.9 1020.9 0.0
30/01:00pm 20.6 19.6 8.9 47 6.2 NNE 4 9 2 5 1021.5 1021.5 0.0
30/12:30pm 19.8 18.5 9.1 50 5.6 WSW 6 9 3 5 1022.2 1022.2 0.0
30/12:00pm 18.8 16.6 7.9 49 5.6 WSW 9 13 5 7 1022.7 1022.7 0.0
30/11:30am 17.7 15.0 7.4 51 5.2 WSW 11 17 6 9 1023.4 1023.4 0.0
30/11:00am 16.8 14.2 7.7 55 4.6 SW 11 17 6 9 1023.9 1023.9 0.0
30/10:30am 15.5 12.5 7.8 60 3.8 WSW 13 17 7 9 1024.3 1024.3 0.0
30/10:00am 13.8 10.2 6.9 63 3.3 WSW 15 19 8 10 1024.5 1024.5 0.0
30/09:30am 13.0 10.0 7.5 69 2.7 WSW 13 19 7 10 1024.8 1024.8 0.0
30/09:00am 11.8 9.1 7.5 75 2.1 SW 11 15 6 8 1024.8 1024.8 0.0
30/08:30am 10.1 7.6 6.4 78 1.7 SW 9 13 5 7 1024.7 1024.7 0.0
30/08:00am 9.3 6.3 6.2 81 1.4 SW 11 13 6 7 1024.6 1024.6 0.0
30/07:30am 8.0 5.9 6.0 87 0.9 SW 6 7 3 4 1024.4 1024.4 0.0
30/07:00am 6.6 4.2 5.1 90 0.7 SSW 7 9 4 5 1024.0 1024.0 0.0
30/06:30am 6.0 3.5 4.5 90 0.6 SSW 7 9 4 5 1023.9 1023.9 0.0
30/06:00am 5.7 3.3 4.3 91 0.6 S 6 9 3 5 1023.7 1023.7 0.0
30/05:30am 6.2 4.0 5.2 93 0.4 S 6 7 3 4 1023.7 1023.7 0.0
30/05:00am 5.5 3.9 4.3 92 0.5 S 2 7 1 4 1023.6 1023.6 0.0
30/04:30am 6.1 3.7 5.1 93 0.4 SSW 7 9 4 5 1023.5 1023.5 0.0
30/04:00am 5.8 4.3 4.8 93 0.4 S 2 6 1 3 1023.6 1023.6 0.0
30/03:30am 5.6 2.7 4.4 92 0.5 SSW 9 11 5 6 1023.7 1023.7 0.0
30/03:00am 6.3 3.8 4.9 91 0.6 S 7 9 4 5 1023.8 1023.8 0.0
30/02:30am 6.4 4.1 5.0 91 0.6 S 6 9 3 5 1024.0 1024.0 0.0
30/02:00am 7.5 5.2 5.8 89 0.8 S 7 7 4 4 1024.4 1024.4 0.0
30/01:30am 7.0 4.8 5.2 88 0.8 S 6 7 3 4 1024.9 1024.9 0.0
30/01:00am 7.7 6.9 6.3 91 0.6 CALM 0 0 0 0 1025.0 1025.0 0.0
30/12:30am 7.7 6.9 6.6 93 0.5 CALM 0 0 0 0 1025.1 1025.1 0.0
30/12:00am 8.1 7.3 6.7 91 0.6 CALM 0 0 0 0 1025.0 1025.0 0.0
 
Date/Time
EST
Temp
°C
App
Temp
°C
Dew
Point
°C
Rel
Hum
%
Delta-T
°C
Wind Press
QNH
hPa
Press
MSL
hPa
Rain since
9am
mm
Dir  Spd
km/h
Gust
km/h
Spd
kts
Gust
kts
29/11:30pm 8.7 6.9 7.3 91 0.7 S 6 6 3 3 1025.1 1025.1 0.0
29/11:00pm 7.9 7.1 6.4 90 0.7 CALM 0 0 0 0 1025.3 1025.3 0.0
29/10:30pm 9.0 8.3 6.8 86 1.0 CALM 0 0 0 0 1025.4 1025.4 0.0
29/10:00pm 10.4 9.8 7.6 83 1.3 CALM 0 0 0 0 1025.6 1025.6 0.0
29/09:30pm 10.3 9.7 7.5 83 1.3 CALM 0 0 0 0 1025.5 1025.5 0.0
29/09:00pm 10.4 9.8 7.6 83 1.3 CALM 0 0 0 0 1025.4 1025.4 0.0
29/08:30pm 10.7 10.1 7.6 81 1.5 CALM 0 4 0 2 1025.4 1025.4 0.0
29/08:00pm 11.8 9.8 7.3 74 2.2 S 7 9 4 5 1025.5 1025.5 0.0
29/07:30pm 13.2 12.8 8.3 72 2.4 CALM 0 0 0 0 1025.6 1025.6 0.0
29/07:00pm 14.1 13.6 7.9 66 3.1 CALM 0 7 0 4 1025.6 1025.6 0.0
29/06:30pm 14.4 13.9 7.7 64 3.3 CALM 0 0 0 0 1025.4 1025.4 0.0
29/06:00pm 15.5 13.9 7.8 60 3.8 S 6 7 3 4 1024.9 1024.9 0.0
29/05:30pm 17.2 15.4 7.0 51 5.1 S 6 6 3 3 1024.5 1024.5 0.0
29/05:00pm 18.7 16.8 6.9 46 5.9 S 6 6 3 3 1024.3 1024.3 0.0
29/04:30pm 19.5 17.0 6.6 43 6.5 SW 9 13 5 7 1024.1 1024.1 0.0
29/04:00pm 20.1 16.8 6.5 41 6.8 SSW 13 17 7 9 1024.0 1024.0 0.0
29/03:30pm 20.7 19.5 6.6 40 7.1 SSE 2 15 1 8 1023.8 1023.8 0.0
29/03:00pm 20.8 18.3 6.7 40 7.1 SW 9 13 5 7 1023.6 1023.6 0.0
29/02:30pm 20.7 18.2 6.6 40 7.1 SE 9 17 5 9 1023.5 1023.5 0.0
29/02:00pm 20.4 17.2 6.7 41 6.9 S 13 19 7 10 1023.6 1023.6 0.0
29/01:30pm 20.7 17.8 8.0 44 6.6 WNW 13 22 7 12 1023.7 1023.7 0.0
29/01:00pm 19.8 17.8 7.2 44 6.4 WSW 7 13 4 7 1024.0 1024.0 0.0
29/12:30pm 19.1 15.8 6.2 43 6.4 W 13 24 7 13 1024.6 1024.6 0.0
29/12:00pm 19.0 15.9 7.1 46 6.0 WSW 13 20 7 11 1025.0 1025.0 0.0
29/11:30am 17.7 14.0 6.3 47 5.6 W 15 20 8 11 1025.7 1025.7 0.0
29/11:00am 16.7 13.7 5.9 49 5.2 W 11 19 6 10 1026.1 1026.1 0.0
29/10:30am 15.4 12.0 5.9 53 4.6 WSW 13 17 7 9 1026.6 1026.6 0.0
29/10:00am 14.4 10.2 5.7 56 4.1 WSW 17 20 9 11 1026.8 1026.8 0.0
29/09:30am 13.4 8.8 5.6 59 3.7 WSW 19 24 10 13 1026.9 1026.9 0.0
29/09:00am 12.5 7.7 5.4 62 3.3 WSW 20 28 11 15 1026.8 1026.8 0.0
29/08:30am 11.6 7.8 5.7 67 2.7 WSW 15 22 8 12 1026.5 1026.5 0.0
29/08:00am 10.6 7.9 5.6 71 2.3 SW 9 13 5 7 1026.3 1026.3 0.0
29/07:30am 9.4 5.8 5.2 75 1.9 SW 13 17 7 9 1026.0 1026.0 0.0
29/07:00am 8.3 5.4 4.7 78 1.6 SSW 9 11 5 6 1025.8 1025.8 0.0
29/06:30am 8.5 4.8 4.7 77 1.7 WSW 13 19 7 10 1025.7 1025.7 0.0
29/06:00am 8.3 4.6 4.7 78 1.6 SW 13 17 7 9 1025.6 1025.6 0.0
29/05:30am 8.2 4.5 4.4 77 1.7 SW 13 19 7 10 1025.2 1025.2 0.0
29/05:00am 8.9 4.9 4.9 76 1.8 WSW 15 19 8 10 1024.9 1024.9 0.0
29/04:30am 8.6 4.9 4.6 76 1.8 WSW 13 17 7 9 1024.6 1024.6 0.0
29/04:00am 8.7 5.4 4.5 75 1.8 SW 11 15 6 8 1024.5 1024.5 0.0
29/03:30am 9.6 6.8 5.0 73 2.1 WSW 9 15 5 8 1024.3 1024.3 0.0
29/03:00am 9.4 5.8 5.0 74 2.0 WSW 13 19 7 10 1024.1 1024.1 0.0
29/02:30am 10.1 6.9 5.1 71 2.3 SW 11 19 6 10 1024.2 1024.2 0.0
29/02:00am 9.6 6.3 4.8 72 2.1 SW 11 15 6 8 1024.4 1024.4 0.0
29/01:30am 9.9 6.3 5.1 72 2.2 WSW 13 17 7 9 1024.6 1024.6 0.0
29/01:00am 9.5 5.9 4.9 73 2.0 SW 13 20 7 11 1024.8 1024.8 0.0
29/12:30am 8.5 5.2 4.3 75 1.8 SW 11 15 6 8 1024.6 1024.6 0.0
29/12:00am 9.0 5.6 4.2 72 2.1 SSW 11 11 6 6 1024.7 1024.7 0.0
 
Date/Time
EST
Temp
°C
App
Temp
°C
Dew
Point
°C
Rel
Hum
%
Delta-T
°C
Wind Press
QNH
hPa
Press
MSL
hPa
Rain since
9am
mm
Dir  Spd
km/h
Gust
km/h
Spd
kts
Gust
kts
28/11:30pm 10.2 7.2 4.1 66 2.7 SW 9 13 5 7 1024.7 1024.7 0.0
28/11:00pm 10.4 7.9 3.9 64 2.9 SW 6 9 3 5 1024.5 1024.5 0.0
28/10:30pm 10.6 7.6 4.1 64 2.9 WSW 9 13 5 7 1024.5 1024.5 0.0
28/10:00pm 11.3 7.5 4.1 61 3.2 WSW 13 17 7 9 1024.3 1024.3 0.0
28/09:30pm 11.1 8.1 4.1 62 3.1 WSW 9 15 5 8 1024.3 1024.3 0.0
28/09:00pm 11.6 8.6 4.1 60 3.3 W 9 15 5 8 1024.2 1024.2 0.0
28/08:30pm 12.2 8.1 4.4 59 3.5 W 15 17 8 9 1024.0 1024.0 0.0
28/08:00pm 12.6 8.9 4.3 57 3.7 W 13 20 7 11 1023.9 1023.9 0.0
28/07:30pm 12.9 8.4 4.3 56 3.9 W 17 22 9 12 1023.6 1023.6 0.0
28/07:00pm 13.2 8.8 4.6 56 3.9 W 17 22 9 12 1023.2 1023.2 0.0
28/06:30pm 13.9 9.5 4.8 54 4.2 W 17 22 9 12 1022.6 1022.6 0.0
28/06:00pm 14.5 9.7 4.5 51 4.6 W 19 22 10 12 1022.0 1022.0 0.0
28/05:30pm 15.0 11.0 4.7 50 4.8 W 15 22 8 12 1021.5 1021.5 0.0
28/05:00pm 15.1 11.5 4.8 50 4.8 WNW 13 20 7 11 1021.0 1021.0 0.0
28/04:30pm 16.7 12.3 4.7 45 5.7 W 17 24 9 13 1020.7 1020.7 0.0

Latest Capital City Observations: Canberra | Sydney | Melbourne | Brisbane | Adelaide | Perth | Hobart | Darwin

Other Formats:

Comma delimited format used in spreadsheet applications
http://www.bom.gov.au/fwo/IDQ60901/IDQ60901.94575.axf

JavaScript Object Notation format (JSON) in row-major order
http://www.bom.gov.au/fwo/IDQ60901/IDQ60901.94575.json